createdAt,value
2023-04-29T00:01:20.847Z,2.10
2023-04-29T00:06:23.632Z,2.00
2023-04-29T00:11:25.497Z,1.70
2023-04-29T00:16:27.241Z,1.50
2023-04-29T00:21:29.101Z,1.50
2023-04-29T00:26:30.859Z,1.40
2023-04-29T00:31:33.087Z,1.40
2023-04-29T00:36:34.949Z,1.30
2023-04-29T00:41:37.086Z,1.20
2023-04-29T00:46:38.969Z,1.10
2023-04-29T00:51:42.627Z,1.10
2023-04-29T00:56:46.455Z,0.90
2023-04-29T01:01:48.481Z,0.90
2023-04-29T01:06:53.198Z,0.90
2023-04-29T01:12:25.942Z,0.90
2023-04-29T01:17:31.433Z,0.80
2023-04-29T01:22:33.172Z,0.90
2023-04-29T01:27:49.210Z,0.90
2023-04-29T01:33:01.403Z,0.90
2023-04-29T01:38:09.311Z,1.70
2023-04-29T01:43:12.728Z,1.80
2023-04-29T01:48:15.190Z,1.60
2023-04-29T01:53:17.085Z,1.70
2023-04-29T01:58:18.896Z,1.50
2023-04-29T02:03:20.865Z,1.00
2023-04-29T02:08:22.952Z,0.70
2023-04-29T02:13:24.666Z,0.60
2023-04-29T02:18:26.510Z,0.60
2023-04-29T02:23:28.432Z,0.40
2023-04-29T02:28:30.169Z,0.40
2023-04-29T02:33:33.002Z,0.60
2023-04-29T02:38:34.741Z,0.90
2023-04-29T02:43:36.798Z,0.90
2023-04-29T02:48:38.685Z,0.60
2023-04-29T02:53:40.488Z,0.50
2023-04-29T02:58:42.371Z,0.80
2023-04-29T03:03:44.699Z,0.80
2023-04-29T03:08:46.773Z,0.70
2023-04-29T03:13:48.610Z,0.80
2023-04-29T03:18:50.381Z,1.00
2023-04-29T03:23:52.194Z,1.00
2023-04-29T03:28:54.133Z,1.00
2023-04-29T03:33:55.882Z,1.90
2023-04-29T03:38:57.607Z,3.70
2023-04-29T03:44:00.958Z,5.10
2023-04-29T03:49:02.798Z,5.80
2023-04-29T03:54:04.623Z,6.10
2023-04-29T03:59:06.471Z,6.20
2023-04-29T04:04:08.622Z,7.00
2023-04-29T04:09:10.860Z,7.30
2023-04-29T04:14:13.101Z,6.50
2023-04-29T04:19:15.014Z,5.30
2023-04-29T04:24:16.745Z,4.60
2023-04-29T04:29:18.454Z,4.40
2023-04-29T04:34:20.395Z,4.20
2023-04-29T04:39:22.173Z,4.70
2023-04-29T04:44:23.967Z,4.60
2023-04-29T04:49:25.901Z,5.80
2023-04-29T04:54:27.640Z,6.60
2023-04-29T04:59:29.438Z,6.50
2023-04-29T05:04:31.323Z,7.00
2023-04-29T05:09:33.325Z,8.80
2023-04-29T05:14:35.076Z,8.60
2023-04-29T05:19:36.795Z,8.10
2023-04-29T05:24:38.530Z,7.80
2023-04-29T05:29:40.356Z,9.50
2023-04-29T05:34:42.264Z,11.00
2023-04-29T05:39:44.117Z,10.60
2023-04-29T05:44:45.969Z,10.80
2023-04-29T05:49:48.181Z,11.40
2023-04-29T05:54:50.102Z,13.00
2023-04-29T05:59:52.050Z,12.30
2023-04-29T06:04:54.072Z,11.50
2023-04-29T06:09:56.612Z,12.00
2023-04-29T06:14:58.494Z,10.80
2023-04-29T06:20:00.640Z,10.00
2023-04-29T06:25:02.564Z,9.90
2023-04-29T06:30:04.793Z,10.40
2023-04-29T06:35:07.050Z,11.20
2023-04-29T06:40:09.322Z,12.60
2023-04-29T06:45:11.388Z,15.40
2023-04-29T06:50:13.170Z,16.50
2023-04-29T06:55:15.041Z,17.80
2023-04-29T07:00:16.824Z,22.30
2023-04-29T07:05:19.597Z,22.30
2023-04-29T07:10:21.647Z,24.00
2023-04-29T07:15:23.533Z,24.70
2023-04-29T07:20:25.822Z,21.00
2023-04-29T07:25:30.961Z,23.30
2023-04-29T07:30:32.760Z,21.30
2023-04-29T07:35:34.505Z,20.30
2023-04-29T07:40:36.453Z,20.50
2023-04-29T07:45:38.459Z,24.00
2023-04-29T07:50:40.198Z,25.30
2023-04-29T07:55:42.178Z,25.80
2023-04-29T08:00:43.905Z,23.80
2023-04-29T08:05:45.725Z,21.60
2023-04-29T08:10:47.904Z,21.30
2023-04-29T08:15:50.191Z,21.60
2023-04-29T08:20:52.187Z,20.70
2023-04-29T08:25:56.238Z,20.80
2023-04-29T08:30:58.038Z,20.90
2023-04-29T08:36:00.490Z,19.50
2023-04-29T08:41:02.238Z,19.40
2023-04-29T08:46:07.200Z,18.90
2023-04-29T08:51:13.042Z,20.40
2023-04-29T08:56:20.584Z,19.90
2023-04-29T09:01:24.285Z,21.00
2023-04-29T09:06:26.876Z,20.40
2023-04-29T09:11:30.176Z,21.30
2023-04-29T09:16:31.990Z,22.70
2023-04-29T09:21:33.898Z,21.00
2023-04-29T09:26:44.893Z,21.90
2023-04-29T09:31:47.443Z,20.80
2023-04-29T09:36:56.949Z,22.10
2023-04-29T09:42:02.570Z,22.30
2023-04-29T09:47:09.513Z,23.50
2023-04-29T09:52:12.487Z,22.70
2023-04-29T09:57:15.860Z,18.60
2023-04-29T10:02:18.782Z,17.40
2023-04-29T10:07:22.006Z,17.40
2023-04-29T10:12:25.256Z,16.40
2023-04-29T10:17:43.472Z,16.50
2023-04-29T10:22:53.190Z,16.60
2023-04-29T10:27:56.246Z,16.10
2023-04-29T10:33:02.196Z,16.40
2023-04-29T10:38:21.657Z,16.80
2023-04-29T10:43:24.985Z,16.20
2023-04-29T10:48:26.716Z,15.50
2023-04-29T10:53:29.548Z,15.00
2023-04-29T10:58:47.147Z,15.80
2023-04-29T11:03:58.553Z,15.90
2023-04-29T11:09:02.624Z,15.20
2023-04-29T11:14:04.920Z,15.50
2023-04-29T11:19:11.088Z,15.50
2023-04-29T11:24:15.571Z,14.90
2023-04-29T11:29:19.822Z,15.10
2023-04-29T11:34:26.281Z,15.10
2023-04-29T11:39:28.397Z,14.40
2023-04-29T11:44:30.208Z,14.50
2023-04-29T11:49:37.587Z,14.60
2023-04-29T11:54:41.594Z,15.30
2023-04-29T11:59:43.414Z,15.50
2023-04-29T12:04:49.022Z,15.10
2023-04-29T12:09:51.493Z,15.10
2023-04-29T12:14:54.453Z,14.90
2023-04-29T12:19:57.363Z,15.10
2023-04-29T12:24:59.240Z,14.60
2023-04-29T12:30:01.016Z,14.90
2023-04-29T12:35:03.091Z,14.60
2023-04-29T12:40:05.538Z,14.50
2023-04-29T12:45:08.196Z,14.40
2023-04-29T12:50:11.381Z,14.40
2023-04-29T12:55:13.148Z,14.50
2023-04-29T13:00:15.543Z,14.50
2023-04-29T13:05:17.353Z,14.30
2023-04-29T13:10:19.205Z,14.20
2023-04-29T13:15:21.956Z,14.50
2023-04-29T13:20:23.696Z,14.50
2023-04-29T13:25:25.498Z,14.50
2023-04-29T13:30:27.268Z,14.60
2023-04-29T13:35:29.258Z,14.80
2023-04-29T13:40:31.304Z,14.80
2023-04-29T13:45:38.838Z,14.90
2023-04-29T14:05:55.769Z,14.70
2023-04-29T14:10:58.065Z,14.90
2023-04-29T14:16:02.225Z,14.40
2023-04-29T14:21:04.135Z,14.50
2023-04-29T14:26:26.485Z,14.80
2023-04-29T14:31:40.494Z,14.50
2023-04-29T14:36:42.638Z,14.40
2023-04-29T14:41:44.982Z,14.50
2023-04-29T14:46:46.943Z,14.60
2023-04-29T14:51:49.219Z,14.60
2023-04-29T14:56:50.959Z,14.70
2023-04-29T15:01:52.767Z,14.80
2023-04-29T15:06:54.843Z,14.60
2023-04-29T15:11:56.692Z,14.60
2023-04-29T15:16:58.481Z,14.70
2023-04-29T15:22:00.214Z,14.70
2023-04-29T15:27:02.501Z,14.80
2023-04-29T15:32:04.551Z,14.80
2023-04-29T15:37:06.490Z,14.80
2023-04-29T15:42:09.528Z,14.70
2023-04-29T15:47:11.613Z,14.80
2023-04-29T15:52:13.904Z,14.80
2023-04-29T15:57:15.674Z,14.60
2023-04-29T16:02:17.457Z,14.60
2023-04-29T16:07:19.177Z,14.40
2023-04-29T16:12:20.910Z,14.30
2023-04-29T16:17:22.782Z,14.20
2023-04-29T16:22:24.582Z,14.10
2023-04-29T16:27:29.904Z,14.00
2023-04-29T16:32:32.894Z,14.00
2023-04-29T16:37:34.736Z,13.90
2023-04-29T16:42:36.666Z,13.90
2023-04-29T16:47:40.880Z,13.80
2023-04-29T16:52:43.405Z,13.80
2023-04-29T16:57:45.192Z,13.70
2023-04-29T17:02:49.112Z,13.60
2023-04-29T17:07:53.690Z,13.50
2023-04-29T17:12:55.508Z,13.40
2023-04-29T17:17:57.515Z,13.50
2023-04-29T17:22:59.279Z,13.40
2023-04-29T17:28:01.061Z,13.30
2023-04-29T17:33:05.830Z,13.30
2023-04-29T17:38:08.417Z,13.20
2023-04-29T17:43:10.137Z,13.20
2023-04-29T17:48:11.894Z,13.10
2023-04-29T17:53:14.300Z,12.90
2023-04-29T17:58:16.170Z,12.70
2023-04-29T18:03:18.909Z,12.60
2023-04-29T18:08:21.228Z,12.70
2023-04-29T18:13:24.609Z,12.70
2023-04-29T18:18:28.751Z,12.80
2023-04-29T18:23:30.810Z,12.80
2023-04-29T18:28:32.636Z,12.80
2023-04-29T18:33:36.270Z,12.90
2023-04-29T18:38:38.041Z,12.90
2023-04-29T18:43:40.185Z,13.00
2023-04-29T18:48:41.964Z,13.00
2023-04-29T18:53:43.724Z,13.00
2023-04-29T18:58:45.696Z,13.00
2023-04-29T19:03:47.681Z,13.00
2023-04-29T19:08:49.398Z,13.00
2023-04-29T19:13:51.200Z,13.00
2023-04-29T19:18:53.241Z,12.90
2023-04-29T19:23:54.977Z,12.90
2023-04-29T19:28:56.783Z,12.90
2023-04-29T19:33:58.516Z,13.00
2023-04-29T19:39:02.304Z,12.90
2023-04-29T19:44:04.389Z,12.90
2023-04-29T19:49:06.157Z,13.00
2023-04-29T19:54:07.910Z,13.00
2023-04-29T19:59:09.653Z,13.00
2023-04-29T20:04:12.745Z,13.00
2023-04-29T20:09:15.556Z,13.00
2023-04-29T20:14:17.296Z,13.00
2023-04-29T20:19:19.416Z,13.00
2023-04-29T20:24:21.654Z,13.00
2023-04-29T20:29:23.558Z,13.00
2023-04-29T20:34:25.306Z,13.00
2023-04-29T20:39:27.126Z,13.10
2023-04-29T20:44:29.635Z,13.10
2023-04-29T20:49:31.655Z,13.10
2023-04-29T20:54:33.811Z,13.10
2023-04-29T20:59:35.713Z,13.10
2023-04-29T21:04:37.602Z,13.20
2023-04-29T21:09:39.441Z,13.20
2023-04-29T21:14:42.645Z,13.10
2023-04-29T21:19:44.826Z,13.10
2023-04-29T21:24:46.590Z,13.10
2023-04-29T21:29:48.300Z,13.00
2023-04-29T21:34:50.057Z,12.90
2023-04-29T21:39:52.109Z,12.80
2023-04-29T21:44:57.285Z,12.70
2023-04-29T21:49:59.217Z,12.60
2023-04-29T21:55:05.515Z,12.80
2023-04-29T22:00:19.438Z,12.70
2023-04-29T22:05:21.170Z,12.60
2023-04-29T22:10:22.931Z,12.60
2023-04-29T22:15:28.714Z,12.60
2023-04-29T22:20:31.538Z,12.50
2023-04-29T22:25:33.327Z,12.30
2023-04-29T22:30:35.064Z,12.30
2023-04-29T22:35:36.771Z,12.30
2023-04-29T22:40:38.587Z,12.30
2023-04-29T22:45:40.423Z,12.30
2023-04-29T22:50:42.258Z,12.20
2023-04-29T22:55:54.494Z,12.20
2023-04-29T23:00:57.660Z,12.00
2023-04-29T23:06:00.217Z,11.80
2023-04-29T23:11:02.070Z,11.80
2023-04-29T23:16:03.864Z,11.80
2023-04-29T23:21:05.923Z,11.70
2023-04-29T23:26:07.679Z,11.50
2023-04-29T23:31:09.434Z,11.10
2023-04-29T23:36:11.808Z,11.00
2023-04-29T23:41:13.492Z,10.80
2023-04-29T23:46:15.223Z,10.70
2023-04-29T23:51:17.360Z,10.60
2023-04-29T23:56:19.131Z,10.70
